sensor_id;sensor_type;location;lat;lon;timestamp;pressure;altitude;pressure_sealevel;temperature;humidity
65131;BME280;51709;54.912;8.316;2023-01-29T00:02:17;102452.75;;;4.58;85.10
65131;BME280;51709;54.912;8.316;2023-01-29T00:07:38;102440.91;;;4.60;85.25
65131;BME280;51709;54.912;8.316;2023-01-29T00:12:59;102454.66;;;4.65;85.01
65131;BME280;51709;54.912;8.316;2023-01-29T00:18:20;102440.47;;;4.73;84.81
65131;BME280;51709;54.912;8.316;2023-01-29T00:23:41;102442.38;;;4.81;84.77
65131;BME280;51709;54.912;8.316;2023-01-29T00:29:01;102439.91;;;4.84;84.60
65131;BME280;51709;54.912;8.316;2023-01-29T00:34:22;102440.56;;;4.76;84.76
65131;BME280;51709;54.912;8.316;2023-01-29T00:39:43;102432.09;;;4.76;85.10
65131;BME280;51709;54.912;8.316;2023-01-29T00:45:09;102414.34;;;4.79;84.77
65131;BME280;51709;54.912;8.316;2023-01-29T00:50:31;102398.34;;;4.82;85.04
65131;BME280;51709;54.912;8.316;2023-01-29T00:55:51;102407.63;;;4.81;85.18
65131;BME280;51709;54.912;8.316;2023-01-29T01:01:12;102417.94;;;4.86;85.15
65131;BME280;51709;54.912;8.316;2023-01-29T01:06:36;102413.03;;;4.92;85.02
65131;BME280;51709;54.912;8.316;2023-01-29T01:11:56;102422.50;;;4.98;84.95
65131;BME280;51709;54.912;8.316;2023-01-29T01:17:17;102413.31;;;5.03;84.75
65131;BME280;51709;54.912;8.316;2023-01-29T01:22:38;102414.81;;;4.96;84.93
65131;BME280;51709;54.912;8.316;2023-01-29T01:27:58;102402.06;;;4.94;84.82
65131;BME280;51709;54.912;8.316;2023-01-29T01:33:22;102381.63;;;4.91;84.77
65131;BME280;51709;54.912;8.316;2023-01-29T01:38:43;102375.59;;;4.88;84.98
65131;BME280;51709;54.912;8.316;2023-01-29T01:44:05;102367.16;;;4.89;84.82
65131;BME280;51709;54.912;8.316;2023-01-29T01:49:26;102365.44;;;4.89;84.84
65131;BME280;51709;54.912;8.316;2023-01-29T01:54:47;102337.56;;;4.92;84.90
65131;BME280;51709;54.912;8.316;2023-01-29T02:00:11;102322.19;;;4.88;84.75
65131;BME280;51709;54.912;8.316;2023-01-29T02:05:35;102306.00;;;4.86;84.86
65131;BME280;51709;54.912;8.316;2023-01-29T02:11:16;102287.34;;;4.85;85.03
65131;BME280;51709;54.912;8.316;2023-01-29T02:16:37;102271.31;;;4.88;84.91
65131;BME280;51709;54.912;8.316;2023-01-29T02:22:23;102294.94;;;4.84;84.96
65131;BME280;51709;54.912;8.316;2023-01-29T02:28:05;102290.50;;;4.76;85.13
65131;BME280;51709;54.912;8.316;2023-01-29T02:40:12;102291.22;;;4.72;85.38
65131;BME280;51709;54.912;8.316;2023-01-29T02:46:06;102299.06;;;4.80;85.17
65131;BME280;51709;54.912;8.316;2023-01-29T02:51:43;102303.63;;;4.92;84.75
65131;BME280;51709;54.912;8.316;2023-01-29T02:57:15;102293.53;;;4.95;84.81
65131;BME280;51709;54.912;8.316;2023-01-29T03:02:45;102310.56;;;4.98;84.68
65131;BME280;51709;54.912;8.316;2023-01-29T03:08:11;102297.75;;;4.94;84.80
65131;BME280;51709;54.912;8.316;2023-01-29T03:19:13;102296.84;;;4.92;84.82
65131;BME280;51709;54.912;8.316;2023-01-29T03:24:47;102288.31;;;4.90;84.98
65131;BME280;51709;54.912;8.316;2023-01-29T03:30:32;102295.91;;;4.89;85.05
65131;BME280;51709;54.912;8.316;2023-01-29T03:36:34;102303.53;;;4.87;85.13
65131;BME280;51709;54.912;8.316;2023-01-29T03:42:31;102268.75;;;4.88;85.27
65131;BME280;51709;54.912;8.316;2023-01-29T03:48:09;102269.69;;;4.91;85.01
65131;BME280;51709;54.912;8.316;2023-01-29T04:00:05;102269.66;;;4.90;85.16
65131;BME280;51709;54.912;8.316;2023-01-29T04:05:30;102244.13;;;4.87;85.30
65131;BME280;51709;54.912;8.316;2023-01-29T04:11:08;102250.22;;;4.92;85.28
65131;BME280;51709;54.912;8.316;2023-01-29T04:16:38;102248.59;;;4.96;85.32
65131;BME280;51709;54.912;8.316;2023-01-29T04:22:11;102256.34;;;5.00;85.55
65131;BME280;51709;54.912;8.316;2023-01-29T04:27:56;102228.38;;;5.02;85.51
65131;BME280;51709;54.912;8.316;2023-01-29T04:33:44;102199.66;;;5.06;85.47
65131;BME280;51709;54.912;8.316;2023-01-29T04:39:19;102199.78;;;5.11;85.28
65131;BME280;51709;54.912;8.316;2023-01-29T04:44:49;102187.13;;;5.14;85.27
65131;BME280;51709;54.912;8.316;2023-01-29T04:50:19;102187.03;;;5.09;85.41
65131;BME280;51709;54.912;8.316;2023-01-29T04:56:06;102199.84;;;5.14;85.34
65131;BME280;51709;54.912;8.316;2023-01-29T05:01:29;102179.50;;;5.15;85.22
65131;BME280;51709;54.912;8.316;2023-01-29T05:06:52;102179.63;;;5.20;84.97
65131;BME280;51709;54.912;8.316;2023-01-29T05:12:15;102171.13;;;5.19;85.63
65131;BME280;51709;54.912;8.316;2023-01-29T05:17:36;102166.00;;;5.18;85.55
65131;BME280;51709;54.912;8.316;2023-01-29T05:22:57;102135.44;;;5.16;85.68
65131;BME280;51709;54.912;8.316;2023-01-29T05:36:15;102117.50;;;5.12;85.75
65131;BME280;51709;54.912;8.316;2023-01-29T05:41:36;102113.97;;;5.05;85.79
65131;BME280;51709;54.912;8.316;2023-01-29T05:46:56;102113.97;;;5.05;85.89
65131;BME280;51709;54.912;8.316;2023-01-29T05:52:17;102103.88;;;5.09;85.72
65131;BME280;51709;54.912;8.316;2023-01-29T05:57:39;102097.97;;;5.09;85.87
65131;BME280;51709;54.912;8.316;2023-01-29T06:03:00;102079.94;;;5.00;85.80
65131;BME280;51709;54.912;8.316;2023-01-29T06:08:21;102080.69;;;4.96;85.73
65131;BME280;51709;54.912;8.316;2023-01-29T06:13:41;102088.34;;;4.97;85.72
65131;BME280;51709;54.912;8.316;2023-01-29T06:19:02;102085.03;;;5.00;85.66
65131;BME280;51709;54.912;8.316;2023-01-29T06:24:23;102078.22;;;4.99;85.74
65131;BME280;51709;54.912;8.316;2023-01-29T06:29:43;102069.78;;;5.01;85.65
65131;BME280;51709;54.912;8.316;2023-01-29T06:35:04;102071.44;;;4.99;85.80
65131;BME280;51709;54.912;8.316;2023-01-29T06:40:25;102072.38;;;5.03;85.89
65131;BME280;51709;54.912;8.316;2023-01-29T06:45:56;102066.44;;;5.02;85.84
65131;BME280;51709;54.912;8.316;2023-01-29T06:51:17;102056.31;;;5.05;86.08
65131;BME280;51709;54.912;8.316;2023-01-29T06:56:38;102045.38;;;5.09;85.81
65131;BME280;51709;54.912;8.316;2023-01-29T07:01:58;102033.53;;;5.12;85.91
65131;BME280;51709;54.912;8.316;2023-01-29T07:07:19;102023.28;;;5.07;85.90
65131;BME280;51709;54.912;8.316;2023-01-29T07:12:40;102016.38;;;5.01;86.06
65131;BME280;51709;54.912;8.316;2023-01-29T07:18:02;102032.47;;;5.00;86.16
65131;BME280;51709;54.912;8.316;2023-01-29T07:23:33;102039.44;;;5.09;85.92
65131;BME280;51709;54.912;8.316;2023-01-29T07:28:53;102065.88;;;5.16;85.90
65131;BME280;51709;54.912;8.316;2023-01-29T07:34:14;102050.34;;;5.03;85.71
65131;BME280;51709;54.912;8.316;2023-01-29T07:39:35;102035.72;;;4.94;85.67
65131;BME280;51709;54.912;8.316;2023-01-29T07:44:55;102042.66;;;5.02;85.62
65131;BME280;51709;54.912;8.316;2023-01-29T07:50:16;102033.44;;;5.07;85.40
65131;BME280;51709;54.912;8.316;2023-01-29T07:55:37;102026.72;;;5.09;85.40
65131;BME280;51709;54.912;8.316;2023-01-29T08:00:58;102035.19;;;5.09;85.50
65131;BME280;51709;54.912;8.316;2023-01-29T08:06:18;102039.47;;;5.11;85.41
65131;BME280;51709;54.912;8.316;2023-01-29T08:11:39;102037.91;;;5.17;85.20
65131;BME280;51709;54.912;8.316;2023-01-29T08:16:59;102009.09;;;5.18;85.15
65131;BME280;51709;54.912;8.316;2023-01-29T08:22:20;101993.16;;;5.27;84.79
65131;BME280;51709;54.912;8.316;2023-01-29T08:27:41;101979.59;;;5.28;84.70
65131;BME280;51709;54.912;8.316;2023-01-29T08:33:02;101983.72;;;5.23;84.63
65131;BME280;51709;54.912;8.316;2023-01-29T08:38:23;101966.72;;;5.20;84.77
65131;BME280;51709;54.912;8.316;2023-01-29T08:43:44;101975.25;;;5.24;84.62
65131;BME280;51709;54.912;8.316;2023-01-29T08:49:05;101976.25;;;5.31;84.45
65131;BME280;51709;54.912;8.316;2023-01-29T08:54:27;101989.06;;;5.35;84.36
65131;BME280;51709;54.912;8.316;2023-01-29T08:59:47;101981.50;;;5.40;84.26
65131;BME280;51709;54.912;8.316;2023-01-29T09:05:08;101969.75;;;5.47;83.96
65131;BME280;51709;54.912;8.316;2023-01-29T09:10:29;101971.56;;;5.54;83.77
65131;BME280;51709;54.912;8.316;2023-01-29T09:15:50;101962.19;;;5.51;83.64
65131;BME280;51709;54.912;8.316;2023-01-29T09:21:11;101972.53;;;5.61;83.25
65131;BME280;51709;54.912;8.316;2023-01-29T09:26:32;101959.91;;;5.67;83.00
65131;BME280;51709;54.912;8.316;2023-01-29T09:31:53;101952.56;;;5.84;82.54
65131;BME280;51709;54.912;8.316;2023-01-29T09:37:13;101952.00;;;6.00;82.27
65131;BME280;51709;54.912;8.316;2023-01-29T09:42:43;101948.69;;;6.06;82.08
65131;BME280;51709;54.912;8.316;2023-01-29T09:48:09;101936.13;;;6.15;81.86
65131;BME280;51709;54.912;8.316;2023-01-29T09:53:36;101932.75;;;6.18;81.64
65131;BME280;51709;54.912;8.316;2023-01-29T09:58:58;101920.75;;;6.12;81.93
65131;BME280;51709;54.912;8.316;2023-01-29T10:15:59;101897.91;;;6.19;81.72
65131;BME280;51709;54.912;8.316;2023-01-29T10:22:37;101884.13;;;6.06;81.95
65131;BME280;51709;54.912;8.316;2023-01-29T10:27:35;101893.56;;;6.13;81.53
65131;BME280;51709;54.912;8.316;2023-01-29T10:33:01;101873.94;;;6.06;81.67
65131;BME280;51709;54.912;8.316;2023-01-29T10:38:33;101886.53;;;5.98;81.89
65131;BME280;51709;54.912;8.316;2023-01-29T10:49:54;101863.41;;;5.85;81.67
65131;BME280;51709;54.912;8.316;2023-01-29T11:00:55;101844.38;;;5.60;81.81
65131;BME280;51709;54.912;8.316;2023-01-29T11:06:20;101840.09;;;5.59;81.76
65131;BME280;51709;54.912;8.316;2023-01-29T11:11:47;101826.66;;;5.69;81.47
65131;BME280;51709;54.912;8.316;2023-01-29T11:17:17;101820.03;;;5.79;81.09
65131;BME280;51709;54.912;8.316;2023-01-29T11:22:52;101820.09;;;5.85;80.97
65131;BME280;51709;54.912;8.316;2023-01-29T11:28:13;101805.88;;;5.98;80.88
65131;BME280;51709;54.912;8.316;2023-01-29T11:34:23;101799.09;;;6.00;80.87
65131;BME280;51709;54.912;8.316;2023-01-29T11:39:45;101788.13;;;6.03;80.94
65131;BME280;51709;54.912;8.316;2023-01-29T11:50:39;101766.84;;;6.01;81.21
65131;BME280;51709;54.912;8.316;2023-01-29T11:56:03;101766.09;;;6.07;81.09
65131;BME280;51709;54.912;8.316;2023-01-29T12:01:31;101751.69;;;6.12;80.99
65131;BME280;51709;54.912;8.316;2023-01-29T12:06:53;101739.75;;;6.08;81.13
65131;BME280;51709;54.912;8.316;2023-01-29T12:12:27;101719.19;;;5.97;81.45
65131;BME280;51709;54.912;8.316;2023-01-29T12:34:54;101686.19;;;6.03;81.16
65131;BME280;51709;54.912;8.316;2023-01-29T12:40:20;101663.22;;;6.01;80.96
65131;BME280;51709;54.912;8.316;2023-01-29T12:45:49;101660.72;;;6.06;80.90
65131;BME280;51709;54.912;8.316;2023-01-29T12:51:17;101644.69;;;6.15;80.33
65131;BME280;51709;54.912;8.316;2023-01-29T12:56:43;101637.03;;;6.15;80.27
65131;BME280;51709;54.912;8.316;2023-01-29T13:07:41;101625.34;;;6.32;79.66
65131;BME280;51709;54.912;8.316;2023-01-29T13:13:30;101615.28;;;6.50;79.57
65131;BME280;51709;54.912;8.316;2023-01-29T13:19:01;101616.22;;;6.62;78.53
65131;BME280;51709;54.912;8.316;2023-01-29T13:24:29;101604.22;;;6.49;79.05
65131;BME280;51709;54.912;8.316;2023-01-29T13:29:52;101582.94;;;6.47;79.12
65131;BME280;51709;54.912;8.316;2023-01-29T13:35:14;101583.75;;;6.38;79.31
65131;BME280;51709;54.912;8.316;2023-01-29T13:40:35;101575.25;;;6.41;79.04
65131;BME280;51709;54.912;8.316;2023-01-29T13:45:56;101574.31;;;6.28;79.12
65131;BME280;51709;54.912;8.316;2023-01-29T13:51:21;101549.63;;;6.22;79.18
65131;BME280;51709;54.912;8.316;2023-01-29T14:02:23;101535.94;;;6.12;79.17
65131;BME280;51709;54.912;8.316;2023-01-29T14:18:46;101497.53;;;5.97;79.21
65131;BME280;51709;54.912;8.316;2023-01-29T14:24:14;101501.06;;;6.07;79.00
65131;BME280;51709;54.912;8.316;2023-01-29T14:29:39;101477.19;;;5.98;79.39
65131;BME280;51709;54.912;8.316;2023-01-29T14:35:03;101479.63;;;5.88;79.70
65131;BME280;51709;54.912;8.316;2023-01-29T14:40:26;101457.56;;;5.90;79.77
65131;BME280;51709;54.912;8.316;2023-01-29T14:45:49;101449.06;;;5.88;80.01
65131;BME280;51709;54.912;8.316;2023-01-29T14:51:15;101449.03;;;5.83;80.30
65131;BME280;51709;54.912;8.316;2023-01-29T14:56:45;101426.97;;;5.86;80.06
65131;BME280;51709;54.912;8.316;2023-01-29T15:02:17;101422.78;;;5.92;80.23
65131;BME280;51709;54.912;8.316;2023-01-29T15:07:47;101423.59;;;5.88;80.28
65131;BME280;51709;54.912;8.316;2023-01-29T15:13:16;101404.91;;;5.89;80.31
65131;BME280;51709;54.912;8.316;2023-01-29T15:18:41;101395.56;;;5.86;80.40
65131;BME280;51709;54.912;8.316;2023-01-29T15:24:11;101394.69;;;5.85;80.43
65131;BME280;51709;54.912;8.316;2023-01-29T15:29:32;101398.13;;;5.86;80.57
65131;BME280;51709;54.912;8.316;2023-01-29T15:34:56;101372.63;;;5.84;80.80
65131;BME280;51709;54.912;8.316;2023-01-29T15:40:18;101365.09;;;5.98;80.45
65131;BME280;51709;54.912;8.316;2023-01-29T15:45:39;101341.34;;;6.03;80.62
65131;BME280;51709;54.912;8.316;2023-01-29T15:51:00;101334.59;;;6.09;80.62
65131;BME280;51709;54.912;8.316;2023-01-29T15:56:27;101337.97;;;6.05;80.61
65131;BME280;51709;54.912;8.316;2023-01-29T16:01:49;101315.78;;;5.92;80.87
65131;BME280;51709;54.912;8.316;2023-01-29T16:07:10;101308.97;;;5.88;80.97
65131;BME280;51709;54.912;8.316;2023-01-29T16:12:32;101298.75;;;5.83;80.87
65131;BME280;51709;54.912;8.316;2023-01-29T16:17:53;101298.75;;;5.83;80.82
65131;BME280;51709;54.912;8.316;2023-01-29T16:23:25;101272.38;;;5.78;80.99
65131;BME280;51709;54.912;8.316;2023-01-29T16:28:47;101268.16;;;5.80;80.80
65131;BME280;51709;54.912;8.316;2023-01-29T16:39:44;101252.84;;;5.75;80.95
65131;BME280;51709;54.912;8.316;2023-01-29T16:45:26;101238.41;;;5.68;81.06
65131;BME280;51709;54.912;8.316;2023-01-29T16:50:47;101246.00;;;5.66;81.22
65131;BME280;51709;54.912;8.316;2023-01-29T16:56:14;101239.25;;;5.67;80.95
65131;BME280;51709;54.912;8.316;2023-01-29T17:01:37;101220.56;;;5.68;81.03
65131;BME280;51709;54.912;8.316;2023-01-29T17:06:59;101200.16;;;5.66;80.86
65131;BME280;51709;54.912;8.316;2023-01-29T17:12:23;101184.06;;;5.66;80.98
65131;BME280;51709;54.912;8.316;2023-01-29T17:17:44;101173.03;;;5.73;80.95
65131;BME280;51709;54.912;8.316;2023-01-29T17:23:08;101169.63;;;5.71;80.97
65131;BME280;51709;54.912;8.316;2023-01-29T17:28:29;101155.19;;;5.65;80.95
65131;BME280;51709;54.912;8.316;2023-01-29T17:33:50;101143.31;;;5.67;81.00
65131;BME280;51709;54.912;8.316;2023-01-29T17:39:19;101138.22;;;5.67;81.00
65131;BME280;51709;54.912;8.316;2023-01-29T17:44:43;101142.44;;;5.65;81.04
65131;BME280;51709;54.912;8.316;2023-01-29T17:55:39;101125.50;;;5.70;80.98
65131;BME280;51709;54.912;8.316;2023-01-29T18:01:00;101100.03;;;5.72;80.97
65131;BME280;51709;54.912;8.316;2023-01-29T18:06:26;101068.66;;;5.75;80.91
65131;BME280;51709;54.912;8.316;2023-01-29T18:11:48;101066.97;;;5.74;81.12
65131;BME280;51709;54.912;8.316;2023-01-29T18:17:09;101073.75;;;5.81;80.93
65131;BME280;51709;54.912;8.316;2023-01-29T18:22:29;101059.31;;;5.78;81.05
65131;BME280;51709;54.912;8.316;2023-01-29T18:27:50;101038.09;;;5.78;81.09
65131;BME280;51709;54.912;8.316;2023-01-29T18:33:12;101035.56;;;5.75;81.06
65131;BME280;51709;54.912;8.316;2023-01-29T18:38:32;101043.16;;;5.73;80.94
65131;BME280;51709;54.912;8.316;2023-01-29T18:43:53;101043.19;;;5.71;81.07
65131;BME280;51709;54.912;8.316;2023-01-29T18:49:13;101021.09;;;5.72;80.98
65131;BME280;51709;54.912;8.316;2023-01-29T18:54:34;101030.44;;;5.70;81.09
65131;BME280;51709;54.912;8.316;2023-01-29T18:59:55;101016.00;;;5.72;81.05
65131;BME280;51709;54.912;8.316;2023-01-29T19:05:17;101010.09;;;5.75;80.91
65131;BME280;51709;54.912;8.316;2023-01-29T19:10:41;100976.97;;;5.75;81.06
65131;BME280;51709;54.912;8.316;2023-01-29T19:16:05;100978.66;;;5.71;81.21
65131;BME280;51709;54.912;8.316;2023-01-29T19:21:26;100990.53;;;5.72;81.27
65131;BME280;51709;54.912;8.316;2023-01-29T19:26:49;100958.28;;;5.74;81.27
65131;BME280;51709;54.912;8.316;2023-01-29T19:32:10;100915.84;;;5.71;81.25
65131;BME280;51709;54.912;8.316;2023-01-29T19:37:31;100928.59;;;5.75;81.31
65131;BME280;51709;54.912;8.316;2023-01-29T19:42:53;100922.66;;;5.76;81.28
65131;BME280;51709;54.912;8.316;2023-01-29T19:48:15;100886.16;;;5.75;81.30
65131;BME280;51709;54.912;8.316;2023-01-29T19:53:40;100878.50;;;5.80;81.17
65131;BME280;51709;54.912;8.316;2023-01-29T19:59:04;100897.16;;;5.79;81.33
65131;BME280;51709;54.912;8.316;2023-01-29T20:04:26;100861.53;;;5.71;81.44
65131;BME280;51709;54.912;8.316;2023-01-29T20:09:48;100858.16;;;5.74;81.51
65131;BME280;51709;54.912;8.316;2023-01-29T20:15:13;100841.16;;;5.73;81.60
65131;BME280;51709;54.912;8.316;2023-01-29T20:20:38;100844.56;;;5.71;81.82
65131;BME280;51709;54.912;8.316;2023-01-29T20:25:59;100845.41;;;5.75;81.76
65131;BME280;51709;54.912;8.316;2023-01-29T20:31:20;100828.44;;;5.77;81.80
65131;BME280;51709;54.912;8.316;2023-01-29T20:36:41;100792.78;;;5.77;81.83
65131;BME280;51709;54.912;8.316;2023-01-29T20:42:01;100806.34;;;5.76;82.05
65131;BME280;51709;54.912;8.316;2023-01-29T20:47:22;100785.97;;;5.81;81.85
65131;BME280;51709;54.912;8.316;2023-01-29T20:52:43;100777.47;;;5.79;82.15
65131;BME280;51709;54.912;8.316;2023-01-29T20:58:05;100779.19;;;5.80;82.30
65131;BME280;51709;54.912;8.316;2023-01-29T21:03:25;100756.28;;;5.78;82.52
65131;BME280;51709;54.912;8.316;2023-01-29T21:08:46;100741.84;;;5.77;82.60
65131;BME280;51709;54.912;8.316;2023-01-29T21:14:07;100734.16;;;5.83;82.61
65131;BME280;51709;54.912;8.316;2023-01-29T21:19:27;100712.09;;;5.85;82.64
65131;BME280;51709;54.912;8.316;2023-01-29T21:24:49;100725.66;;;5.89;82.72
65131;BME280;51709;54.912;8.316;2023-01-29T21:30:10;100692.56;;;5.89;82.99
65131;BME280;51709;54.912;8.316;2023-01-29T21:35:31;100687.50;;;5.86;83.34
65131;BME280;51709;54.912;8.316;2023-01-29T21:40:57;100675.59;;;5.86;83.45
65131;BME280;51709;54.912;8.316;2023-01-29T21:46:18;100664.56;;;5.86;83.71
65131;BME280;51709;54.912;8.316;2023-01-29T21:51:38;100653.50;;;5.93;83.67
65131;BME280;51709;54.912;8.316;2023-01-29T21:57:02;100645.81;;;5.95;83.76
65131;BME280;51709;54.912;8.316;2023-01-29T22:02:26;100650.94;;;5.96;84.09
65131;BME280;51709;54.912;8.316;2023-01-29T22:07:50;100637.31;;;5.99;84.06
65131;BME280;51709;54.912;8.316;2023-01-29T22:13:11;100605.94;;;6.03;84.01
65131;BME280;51709;54.912;8.316;2023-01-29T22:18:32;100587.22;;;6.06;83.95
65131;BME280;51709;54.912;8.316;2023-01-29T22:23:53;100583.00;;;6.01;84.20
65131;BME280;51709;54.912;8.316;2023-01-29T22:29:14;100541.41;;;6.01;84.39
65131;BME280;51709;54.912;8.316;2023-01-29T22:34:36;100559.25;;;5.99;84.32
65131;BME280;51709;54.912;8.316;2023-01-29T22:39:57;100573.66;;;5.97;84.57
65131;BME280;51709;54.912;8.316;2023-01-29T22:45:17;100546.50;;;5.93;84.73
65131;BME280;51709;54.912;8.316;2023-01-29T22:50:38;100559.28;;;5.89;85.13
65131;BME280;51709;54.912;8.316;2023-01-29T22:55:59;100537.22;;;5.88;85.08
65131;BME280;51709;54.912;8.316;2023-01-29T23:01:22;100542.34;;;5.81;85.45
65131;BME280;51709;54.912;8.316;2023-01-29T23:06:43;100517.75;;;5.80;85.65
65131;BME280;51709;54.912;8.316;2023-01-29T23:12:04;100518.53;;;5.85;85.60
65131;BME280;51709;54.912;8.316;2023-01-29T23:17:25;100494.81;;;5.82;85.98
65131;BME280;51709;54.912;8.316;2023-01-29T23:22:48;100465.13;;;5.79;86.19
65131;BME280;51709;54.912;8.316;2023-01-29T23:28:09;100466.00;;;5.75;86.40
65131;BME280;51709;54.912;8.316;2023-01-29T23:33:30;100449.03;;;5.71;86.77
65131;BME280;51709;54.912;8.316;2023-01-29T23:38:51;100446.50;;;5.69;86.86
65131;BME280;51709;54.912;8.316;2023-01-29T23:44:11;100446.50;;;5.69;87.11
65131;BME280;51709;54.912;8.316;2023-01-29T23:49:32;100396.47;;;5.70;87.20
65131;BME280;51709;54.912;8.316;2023-01-29T23:54:52;100382.84;;;5.71;87.59
